TVF30QP LFPO-EKCH
Flight info
| Callsign | TVF30QP |
|---|---|
| Flight time | N/A |
| Altitude | 37000 |
| Route | RANUX2E/07 RANUX DCT VALEK/N0441F390 DCT LUTAX UM163 DIK N853 ARCKY DCT IBESA DCT OSNAD DCT HAM P605 GESKA Z711 MONAK |
| Aircraft | A20N/M-SDE2E3FGHIRWXY/LB1 |
Departure
| Time | N/A |
|---|---|
| Airport | Paris-Orly Airport (LFPO) |
Arrival
| Time | 2026-05-01 07:51 |
|---|---|
| Airport | Copenhagen Kastrup Airport (EKCH) |
| Time | Latitude | Longitude | Altitude | Speed | Heading |
|---|---|---|---|---|---|
| 2026-05-01 07:23 | 54.14621 | 11.01717 | 30230 ft | 414 kts | 43° |
| 2026-05-01 07:23 | 54.18791 | 11.08301 | 29734 ft | 411 kts | 43° |
| 2026-05-01 07:24 | 54.20884 | 11.11612 | 29491 ft | 410 kts | 43° |
| 2026-05-01 07:24 | 54.22971 | 11.14920 | 29237 ft | 408 kts | 43° |
| 2026-05-01 07:24 | 54.25042 | 11.18207 | 28994 ft | 406 kts | 43° |
| 2026-05-01 07:24 | 54.27107 | 11.21489 | 28739 ft | 404 kts | 43° |
| 2026-05-01 07:25 | 54.29167 | 11.24768 | 28487 ft | 403 kts | 43° |
| 2026-05-01 07:25 | 54.31213 | 11.28029 | 28237 ft | 402 kts | 43° |
| 2026-05-01 07:25 | 54.33254 | 11.31286 | 27985 ft | 401 kts | 43° |
| 2026-05-01 07:25 | 54.35290 | 11.34541 | 27735 ft | 399 kts | 43° |
| 2026-05-01 07:26 | 54.37311 | 11.37775 | 27488 ft | 397 kts | 43° |
| 2026-05-01 07:26 | 54.39326 | 11.41004 | 27243 ft | 395 kts | 43° |
| 2026-05-01 07:26 | 54.41329 | 11.44219 | 26988 ft | 394 kts | 43° |
| 2026-05-01 07:26 | 54.43324 | 11.47425 | 26734 ft | 392 kts | 43° |
| 2026-05-01 07:27 | 54.45311 | 11.50622 | 26489 ft | 390 kts | 43° |
| 2026-05-01 07:27 | 54.47287 | 11.53808 | 26239 ft | 389 kts | 43° |
| 2026-05-01 07:27 | 54.49340 | 11.56810 | 25985 ft | 385 kts | 34° |
| 2026-05-01 07:27 | 54.51534 | 11.59337 | 25740 ft | 375 kts | 34° |
| 2026-05-01 07:28 | 54.53690 | 11.61811 | 25492 ft | 372 kts | 34° |
| 2026-05-01 07:28 | 54.55849 | 11.64292 | 25239 ft | 374 kts | 34° |
| 2026-05-01 07:28 | 54.58010 | 11.66781 | 24983 ft | 373 kts | 34° |
| 2026-05-01 07:28 | 54.60162 | 11.69263 | 24742 ft | 372 kts | 34° |
| 2026-05-01 07:29 | 54.62304 | 11.71740 | 24502 ft | 370 kts | 34° |
| 2026-05-01 07:29 | 54.64439 | 11.74214 | 24242 ft | 369 kts | 34° |
| 2026-05-01 07:29 | 54.66562 | 11.76675 | 23991 ft | 367 kts | 34° |
| 2026-05-01 07:29 | 54.68671 | 11.79124 | 23743 ft | 365 kts | 34° |
| 2026-05-01 07:30 | 54.70772 | 11.81567 | 23491 ft | 364 kts | 34° |
| 2026-05-01 07:30 | 54.72871 | 11.84011 | 23242 ft | 362 kts | 34° |
| 2026-05-01 07:30 | 54.74962 | 11.86449 | 22991 ft | 361 kts | 34° |
| 2026-05-01 07:30 | 54.77037 | 11.88871 | 22737 ft | 358 kts | 35° |
| 2026-05-01 07:31 | 54.79099 | 11.91280 | 22482 ft | 356 kts | 35° |
| 2026-05-01 07:31 | 54.85233 | 11.98467 | 21742 ft | 353 kts | 35° |
| 2026-05-01 07:32 | 54.89276 | 12.03219 | 21243 ft | 350 kts | 35° |
| 2026-05-01 07:32 | 54.91285 | 12.05585 | 20991 ft | 347 kts | 35° |
| 2026-05-01 07:33 | 54.95193 | 12.10194 | 20494 ft | 340 kts | 35° |
| 2026-05-01 07:33 | 54.97148 | 12.12505 | 20248 ft | 340 kts | 35° |
| 2026-05-01 07:33 | 55.01029 | 12.17101 | 19501 ft | 339 kts | 35° |
| 2026-05-01 07:34 | 55.02966 | 12.19399 | 19009 ft | 335 kts | 35° |
| 2026-05-01 07:34 | 55.06781 | 12.23929 | 18050 ft | 324 kts | 35° |
| 2026-05-01 07:34 | 55.08605 | 12.26100 | 17591 ft | 319 kts | 35° |
| 2026-05-01 07:35 | 55.10422 | 12.28265 | 17135 ft | 314 kts | 36° |
| 2026-05-01 07:35 | 55.12207 | 12.30394 | 16689 ft | 309 kts | 36° |
| 2026-05-01 07:35 | 55.13974 | 12.32505 | 16241 ft | 305 kts | 36° |
| 2026-05-01 07:35 | 55.15704 | 12.34573 | 15811 ft | 301 kts | 36° |
| 2026-05-01 07:36 | 55.17430 | 12.36638 | 15382 ft | 297 kts | 36° |
| 2026-05-01 07:36 | 55.19122 | 12.38665 | 14961 ft | 293 kts | 36° |
| 2026-05-01 07:36 | 55.20795 | 12.40672 | 14542 ft | 290 kts | 36° |
| 2026-05-01 07:36 | 55.22511 | 12.42734 | 14114 ft | 314 kts | 36° |
| 2026-05-01 07:37 | 55.26271 | 12.47262 | 13163 ft | 332 kts | 36° |
| 2026-05-01 07:37 | 55.28144 | 12.49518 | 12700 ft | 320 kts | 35° |
| 2026-05-01 07:37 | 55.29936 | 12.51680 | 12246 ft | 307 kts | 35° |
| 2026-05-01 07:38 | 55.31658 | 12.53756 | 11822 ft | 293 kts | 35° |
| 2026-05-01 07:38 | 55.32709 | 12.55024 | 11558 ft | 285 kts | 35° |
| 2026-05-01 07:38 | 55.35938 | 12.58929 | 11021 ft | 284 kts | 35° |
| 2026-05-01 07:39 | 55.37568 | 12.60905 | 10591 ft | 286 kts | 35° |
| 2026-05-01 07:39 | 55.39210 | 12.62898 | 10113 ft | 282 kts | 35° |
| 2026-05-01 07:39 | 55.42257 | 12.66600 | 9461 ft | 258 kts | 34° |
| 2026-05-01 07:40 | 55.43716 | 12.68376 | 9240 ft | 256 kts | 34° |
| 2026-05-01 07:40 | 55.45198 | 12.70183 | 9127 ft | 259 kts | 34° |
| 2026-05-01 07:40 | 55.46669 | 12.71977 | 8873 ft | 255 kts | 34° |
| 2026-05-01 07:40 | 55.48109 | 12.73735 | 8547 ft | 248 kts | 34° |
| 2026-05-01 07:41 | 55.49500 | 12.75435 | 8240 ft | 238 kts | 34° |
| 2026-05-01 07:41 | 55.50833 | 12.77064 | 7940 ft | 231 kts | 34° |
| 2026-05-01 07:41 | 55.53832 | 12.80732 | 7461 ft | 274 kts | 34° |
| 2026-05-01 07:42 | 55.55375 | 12.82624 | 7371 ft | 265 kts | 34° |
| 2026-05-01 07:42 | 55.56876 | 12.84467 | 6936 ft | 262 kts | 34° |
| 2026-05-01 07:42 | 55.58375 | 12.86309 | 6345 ft | 262 kts | 34° |
| 2026-05-01 07:42 | 55.59867 | 12.88142 | 5860 ft | 257 kts | 34° |
| 2026-05-01 07:43 | 55.61305 | 12.89910 | 5538 ft | 247 kts | 34° |
| 2026-05-01 07:43 | 55.62666 | 12.91585 | 5223 ft | 238 kts | 34° |
| 2026-05-01 07:43 | 55.65563 | 12.95152 | 4591 ft | 277 kts | 34° |
| 2026-05-01 07:44 | 55.68640 | 12.98949 | 4438 ft | 259 kts | 35° |
| 2026-05-01 07:44 | 55.71422 | 13.02378 | 4095 ft | 231 kts | 36° |
| 2026-05-01 07:45 | 55.72832 | 13.03583 | 4006 ft | 228 kts | 11° |
| 2026-05-01 07:45 | 55.74433 | 13.03306 | 4001 ft | 238 kts | 339° |
| 2026-05-01 07:45 | 55.75767 | 13.01547 | 3998 ft | 242 kts | 308° |
| 2026-05-01 07:45 | 55.76752 | 12.99123 | 4004 ft | 241 kts | 305° |
| 2026-05-01 07:46 | 55.77596 | 12.96576 | 3989 ft | 239 kts | 287° |
| 2026-05-01 07:46 | 55.77748 | 12.93646 | 3997 ft | 240 kts | 263° |
| 2026-05-01 07:46 | 55.76419 | 12.88562 | 3599 ft | 221 kts | 225° |
| 2026-05-01 07:47 | 55.75341 | 12.86688 | 3310 ft | 212 kts | 220° |
| 2026-05-01 07:47 | 55.74257 | 12.84991 | 3034 ft | 204 kts | 219° |
| 2026-05-01 07:47 | 55.73221 | 12.83371 | 2770 ft | 197 kts | 220° |
| 2026-05-01 07:47 | 55.72217 | 12.81806 | 2501 ft | 181 kts | 220° |
| 2026-05-01 07:48 | 55.70446 | 12.79047 | 2076 ft | 160 kts | 221° |
| 2026-05-01 07:48 | 55.69640 | 12.77792 | 1864 ft | 149 kts | 222° |
| 2026-05-01 07:48 | 55.68885 | 12.76617 | 1675 ft | 141 kts | 222° |
| 2026-05-01 07:49 | 55.68132 | 12.75445 | 1474 ft | 144 kts | 223° |
| 2026-05-01 07:49 | 55.66632 | 12.73113 | 1101 ft | 143 kts | 223° |
| 2026-05-01 07:49 | 55.65888 | 12.71957 | 931 ft | 138 kts | 223° |
| 2026-05-01 07:50 | 55.65205 | 12.70895 | 738 ft | 128 kts | 223° |
| 2026-05-01 07:50 | 55.63878 | 12.68834 | 401 ft | 129 kts | 223° |
| 2026-05-01 07:50 | 55.63203 | 12.67785 | 237 ft | 129 kts | 223° |
| 2026-05-01 07:51 | 55.62529 | 12.66740 | 62 ft | 129 kts | 223° |
| 2026-05-01 07:51 | 55.61899 | 12.65755 | 20 ft | 98 kts | 222° |
| 2026-05-01 07:51 | 55.61616 | 12.65290 | 15 ft | 27 kts | 248° |
| 2026-05-01 07:52 | 55.61608 | 12.65083 | 17 ft | 12 kts | 288° |
| 2026-05-01 07:52 | 55.61686 | 12.64845 | 17 ft | 30 kts | 327° |
| 2026-05-01 07:52 | 55.61827 | 12.64769 | 18 ft | 21 kts | 5° |
| 2026-05-01 07:53 | 55.61935 | 12.64860 | 18 ft | 4 kts | 30° |
| 2026-05-01 07:53 | 55.61946 | 12.64871 | 17 ft | 0 kts | 30° |
| 2026-05-01 07:55 | 55.62098 | 12.64753 | 21 ft | 35 kts | 293° |
| 2026-05-01 07:55 | 55.62353 | 12.64068 | 17 ft | 35 kts | 303° |
| 2026-05-01 07:56 | 55.62747 | 12.63254 | 18 ft | 15 kts | 316° |
| 2026-05-01 07:56 | 55.62827 | 12.63233 | 18 ft | 0 kts | 9° |